createdAt,value
2023-01-29T00:07:21.706Z,6.80
2023-01-29T00:17:30.869Z,5.93
2023-01-29T00:27:37.661Z,5.77
2023-01-29T00:37:44.676Z,6.07
2023-01-29T00:47:49.426Z,4.97
2023-01-29T00:57:51.615Z,5.30
2023-01-29T01:07:59.244Z,4.37
2023-01-29T01:18:06.985Z,4.67
2023-01-29T01:28:09.731Z,4.07
2023-01-29T01:38:19.922Z,4.67
2023-01-29T01:48:26.966Z,5.10
2023-01-29T01:58:38.657Z,4.40
2023-01-29T02:09:06.823Z,4.97
2023-01-29T02:19:38.295Z,4.67
2023-01-29T02:30:19.602Z,5.10
2023-01-29T02:40:27.471Z,5.90
2023-01-29T02:50:42.212Z,5.87
2023-01-29T03:00:49.559Z,6.23
2023-01-29T03:10:58.362Z,5.67
2023-01-29T03:21:27.233Z,6.47
2023-01-29T03:31:49.016Z,5.37
2023-01-29T03:42:13.784Z,6.53
2023-01-29T03:52:23.660Z,8.83
2023-01-29T04:02:40.913Z,5.40
2023-01-29T04:13:02.001Z,5.33
2023-01-29T04:23:20.423Z,5.07
2023-01-29T04:33:43.198Z,4.37
2023-01-29T04:43:58.491Z,5.07
2023-01-29T04:54:18.498Z,4.73
2023-01-29T05:04:22.333Z,5.63
2023-01-29T05:14:25.233Z,4.80
2023-01-29T05:24:29.913Z,5.07
2023-01-29T05:34:32.096Z,6.60
2023-01-29T05:44:36.482Z,5.33
2023-01-29T05:54:41.730Z,5.60
2023-01-29T06:04:43.714Z,6.00
2023-01-29T06:14:45.742Z,5.80
2023-01-29T06:24:49.837Z,6.43
2023-01-29T06:34:53.376Z,5.70
2023-01-29T06:44:56.069Z,6.60
2023-01-29T06:54:58.287Z,6.40
2023-01-29T07:05:02.803Z,7.53
2023-01-29T07:15:07.772Z,7.37
2023-01-29T07:25:10.054Z,6.30
2023-01-29T07:35:12.104Z,6.80
2023-01-29T07:45:18.524Z,6.47
2023-01-29T07:55:23.589Z,4.77
2023-01-29T08:05:29.221Z,6.63
2023-01-29T08:15:39.353Z,7.10
2023-01-29T08:25:44.103Z,6.87
2023-01-29T08:35:51.038Z,5.63
2023-01-29T08:45:55.371Z,6.47
2023-01-29T08:55:59.731Z,5.70
2023-01-29T09:06:04.215Z,5.87
2023-01-29T09:16:13.500Z,5.83
2023-01-29T09:26:20.146Z,6.83
2023-01-29T09:36:24.587Z,6.67
2023-01-29T09:46:42.438Z,5.80
2023-01-29T09:56:47.854Z,6.43
2023-01-29T10:07:04.481Z,6.47
2023-01-29T10:17:49.429Z,6.17
2023-01-29T10:28:01.098Z,6.57
2023-01-29T10:38:44.362Z,6.33
2023-01-29T10:49:00.871Z,6.97
2023-01-29T10:59:33.435Z,5.13
2023-01-29T11:09:40.277Z,7.50
2023-01-29T11:19:44.660Z,10.90
2023-01-29T11:29:52.797Z,8.37
2023-01-29T11:39:54.870Z,6.10
2023-01-29T11:50:02.588Z,8.23
2023-01-29T12:00:32.413Z,7.37
2023-01-29T12:10:44.011Z,7.90
2023-01-29T12:21:01.267Z,8.60
2023-01-29T12:31:31.359Z,8.10
2023-01-29T12:41:42.720Z,9.43
2023-01-29T12:51:59.903Z,8.93
2023-01-29T13:02:26.756Z,8.83
2023-01-29T13:12:28.934Z,8.73
2023-01-29T13:22:40.637Z,10.47
2023-01-29T13:32:42.833Z,9.00
2023-01-29T13:42:49.346Z,9.13
2023-01-29T13:52:59.365Z,9.63
2023-01-29T14:03:04.933Z,10.00
2023-01-29T14:13:18.231Z,11.17
2023-01-29T14:23:34.206Z,12.47
2023-01-29T14:33:43.592Z,11.93
2023-01-29T14:43:49.385Z,12.43
2023-01-29T14:54:05.625Z,11.83
2023-01-29T15:04:16.639Z,13.00
2023-01-29T15:14:26.540Z,14.17
2023-01-29T15:24:28.789Z,13.97
2023-01-29T15:34:30.891Z,10.83
2023-01-29T15:44:35.157Z,11.97
2023-01-29T15:54:39.503Z,11.00
2023-01-29T16:04:41.717Z,11.57
2023-01-29T16:14:46.257Z,11.07
2023-01-29T16:24:55.917Z,13.00
2023-01-29T16:35:00.631Z,14.47
2023-01-29T16:45:07.464Z,14.10
2023-01-29T16:55:15.447Z,15.67
2023-01-29T17:05:26.696Z,10.40
2023-01-29T17:15:43.478Z,13.07
2023-01-29T17:25:48.431Z,14.37
2023-01-29T17:35:53.780Z,15.57
2023-01-29T17:45:55.943Z,14.37
2023-01-29T17:56:00.752Z,16.00
2023-01-29T18:06:06.352Z,12.57
2023-01-29T18:16:13.160Z,14.30
2023-01-29T18:26:18.038Z,14.73
2023-01-29T18:36:20.339Z,16.00
2023-01-29T18:46:25.124Z,13.07
2023-01-29T18:56:29.755Z,14.70
2023-01-29T19:06:37.088Z,15.23
2023-01-29T19:16:40.888Z,15.53
2023-01-29T19:26:45.295Z,11.43
2023-01-29T19:36:50.499Z,15.07
2023-01-29T19:46:55.612Z,14.00
2023-01-29T19:56:57.745Z,13.70
2023-01-29T20:06:59.825Z,13.77
2023-01-29T20:17:04.742Z,11.83
2023-01-29T20:27:10.895Z,15.77
2023-01-29T20:37:12.919Z,14.10
2023-01-29T20:47:18.208Z,13.47
2023-01-29T20:57:22.654Z,15.00
2023-01-29T21:07:27.741Z,13.43
2023-01-29T21:17:36.879Z,21.67
2023-01-29T21:27:43.939Z,16.27
2023-01-29T21:37:45.979Z,14.37
2023-01-29T21:47:50.476Z,14.83
2023-01-29T21:57:52.810Z,12.67
2023-01-29T22:07:55.646Z,15.10
2023-01-29T22:17:58.720Z,14.60
2023-01-29T22:28:03.043Z,13.83
2023-01-29T22:38:05.309Z,15.60
2023-01-29T22:48:08.265Z,13.80
2023-01-29T22:58:10.413Z,15.40
2023-01-29T23:08:12.759Z,15.63
2023-01-29T23:18:14.892Z,15.70
2023-01-29T23:28:17.588Z,15.20
2023-01-29T23:38:24.442Z,14.77
2023-01-29T23:48:28.965Z,15.40
2023-01-29T23:58:32.460Z,15.67
